Terminal Aerodrome Forecast
Issued by NWS North Platte, NE

Home | Current Version | Previous Version | Text Only | Print | Product List | Glossary On
Versions: 1 2 3 4 5 6 7 8 9 10 11 12 13 14 15 16 17 18 19
000
FTUS43 KLBF 030500
TAFLBF
TAF
KLBF 030521Z 0306/0406 14011KT P6SM SCT008 OVC014
      TEMPO 0306/0310 4SM -FZDZ BR BKN008
     FM031000 35018G24KT P6SM OVC008
      TEMPO 0310/0314 5SM -SHSN SCT008 OVC015
     FM031400 35023G30KT P6SM OVC025
     FM040000 36014G24KT P6SM SCT025 BKN250=

USA.gov is the U.S. government's official web portal to all federal, state and local government web resources and services.